Alburnett, Iowa
Current Conditions -  °F | °C
As of 3:52 AM on Sunday 26 Oct 2014 (Local Time) from KCID Reporting Station
Clear Clear  
Wind Chill: 36°   Ceiling: Unl
Heat Index: 41°   Visibility: 10mi
Dew Point: 35°   Wind: 7mph
Humidity: 79%   Direction: 10°N
Pressure: 30.03"   Gusts: NA
Location:  42.15°N, 91.62°W
Report Text: KCID 260852Z AUTO 01006KT 10SM CLR 05/02 A3003 RMK AO2 SLP169 T00500017 58008
Loading
Personal Weather Stations






























Interactive Weather Map
Tropical Storm Tracking
New forecast layout! Learn more

10-Day Weather Forecast

Advertisements
Track Severe Weather on mobile